sensor_id;sensor_type;location;lat;lon;timestamp;P1;durP1;ratioP1;P2;durP2;ratioP2
16524;SDS011;8375;33.594;-117.718;2023-03-08T00:01:51;3.33;;;1.43;;
16524;SDS011;8375;33.594;-117.718;2023-03-08T00:04:23;5.47;;;1.30;;
16524;SDS011;8375;33.594;-117.718;2023-03-08T00:06:53;3.93;;;1.50;;
16524;SDS011;8375;33.594;-117.718;2023-03-08T00:09:22;3.87;;;1.77;;
16524;SDS011;8375;33.594;-117.718;2023-03-08T00:11:51;8.80;;;3.50;;
16524;SDS011;8375;33.594;-117.718;2023-03-08T00:14:21;5.23;;;1.67;;
16524;SDS011;8375;33.594;-117.718;2023-03-08T00:16:50;4.97;;;2.77;;
16524;SDS011;8375;33.594;-117.718;2023-03-08T00:19:21;3.47;;;1.00;;
16524;SDS011;8375;33.594;-117.718;2023-03-08T00:21:51;7.53;;;3.77;;
16524;SDS011;8375;33.594;-117.718;2023-03-08T00:24:21;3.40;;;1.53;;
16524;SDS011;8375;33.594;-117.718;2023-03-08T00:26:50;7.73;;;1.90;;
16524;SDS011;8375;33.594;-117.718;2023-03-08T00:29:21;4.40;;;1.27;;
16524;SDS011;8375;33.594;-117.718;2023-03-08T00:31:54;4.50;;;1.53;;
16524;SDS011;8375;33.594;-117.718;2023-03-08T00:34:25;4.40;;;1.20;;
16524;SDS011;8375;33.594;-117.718;2023-03-08T00:36:54;4.17;;;1.80;;
16524;SDS011;8375;33.594;-117.718;2023-03-08T00:39:24;7.37;;;1.60;;
16524;SDS011;8375;33.594;-117.718;2023-03-08T00:41:55;3.93;;;1.20;;
16524;SDS011;8375;33.594;-117.718;2023-03-08T00:44:26;3.37;;;1.20;;
16524;SDS011;8375;33.594;-117.718;2023-03-08T00:46:56;4.53;;;1.17;;
16524;SDS011;8375;33.594;-117.718;2023-03-08T00:49:28;2.40;;;1.27;;
16524;SDS011;8375;33.594;-117.718;2023-03-08T00:51:58;5.63;;;1.60;;
16524;SDS011;8375;33.594;-117.718;2023-03-08T00:54:28;2.80;;;1.57;;
16524;SDS011;8375;33.594;-117.718;2023-03-08T00:57:01;3.70;;;1.20;;
16524;SDS011;8375;33.594;-117.718;2023-03-08T00:59:31;3.67;;;1.53;;
16524;SDS011;8375;33.594;-117.718;2023-03-08T01:02:01;3.33;;;1.33;;
16524;SDS011;8375;33.594;-117.718;2023-03-08T01:04:33;3.83;;;1.20;;
16524;SDS011;8375;33.594;-117.718;2023-03-08T01:07:01;5.13;;;2.03;;
16524;SDS011;8375;33.594;-117.718;2023-03-08T01:09:31;2.90;;;1.10;;
16524;SDS011;8375;33.594;-117.718;2023-03-08T01:11:59;3.37;;;1.33;;
16524;SDS011;8375;33.594;-117.718;2023-03-08T01:14:28;3.53;;;1.17;;
16524;SDS011;8375;33.594;-117.718;2023-03-08T01:16:58;3.97;;;1.30;;
16524;SDS011;8375;33.594;-117.718;2023-03-08T01:19:27;4.60;;;1.80;;
16524;SDS011;8375;33.594;-117.718;2023-03-08T01:21:57;3.03;;;1.10;;
16524;SDS011;8375;33.594;-117.718;2023-03-08T01:24:26;6.20;;;1.30;;
16524;SDS011;8375;33.594;-117.718;2023-03-08T01:26:54;3.27;;;1.10;;
16524;SDS011;8375;33.594;-117.718;2023-03-08T01:29:25;5.07;;;1.40;;
16524;SDS011;8375;33.594;-117.718;2023-03-08T01:31:54;2.93;;;1.07;;
16524;SDS011;8375;33.594;-117.718;2023-03-08T01:34:22;3.40;;;0.87;;
16524;SDS011;8375;33.594;-117.718;2023-03-08T01:36:51;3.37;;;1.07;;
16524;SDS011;8375;33.594;-117.718;2023-03-08T01:39:21;4.77;;;1.40;;
16524;SDS011;8375;33.594;-117.718;2023-03-08T01:41:50;2.33;;;1.20;;
16524;SDS011;8375;33.594;-117.718;2023-03-08T01:44:19;4.60;;;1.30;;
16524;SDS011;8375;33.594;-117.718;2023-03-08T01:46:48;3.67;;;1.40;;
16524;SDS011;8375;33.594;-117.718;2023-03-08T01:49:18;1.60;;;0.87;;
16524;SDS011;8375;33.594;-117.718;2023-03-08T01:51:51;2.40;;;1.00;;
16524;SDS011;8375;33.594;-117.718;2023-03-08T01:54:25;6.03;;;1.27;;
16524;SDS011;8375;33.594;-117.718;2023-03-08T01:56:57;2.60;;;1.10;;
16524;SDS011;8375;33.594;-117.718;2023-03-08T01:59:28;4.33;;;1.30;;
16524;SDS011;8375;33.594;-117.718;2023-03-08T02:01:59;4.53;;;1.20;;
16524;SDS011;8375;33.594;-117.718;2023-03-08T02:04:29;5.10;;;1.23;;
16524;SDS011;8375;33.594;-117.718;2023-03-08T02:06:58;4.20;;;1.03;;
16524;SDS011;8375;33.594;-117.718;2023-03-08T02:09:28;3.07;;;1.00;;
16524;SDS011;8375;33.594;-117.718;2023-03-08T02:11:58;8.47;;;1.77;;
16524;SDS011;8375;33.594;-117.718;2023-03-08T02:14:30;3.67;;;0.83;;
16524;SDS011;8375;33.594;-117.718;2023-03-08T02:16:59;5.93;;;1.20;;
16524;SDS011;8375;33.594;-117.718;2023-03-08T02:19:28;3.60;;;0.90;;
16524;SDS011;8375;33.594;-117.718;2023-03-08T02:22:08;2.03;;;0.80;;
16524;SDS011;8375;33.594;-117.718;2023-03-08T02:24:40;2.80;;;1.00;;
16524;SDS011;8375;33.594;-117.718;2023-03-08T02:27:10;3.13;;;1.10;;
16524;SDS011;8375;33.594;-117.718;2023-03-08T02:29:43;4.53;;;1.20;;
16524;SDS011;8375;33.594;-117.718;2023-03-08T02:32:12;3.20;;;1.20;;
16524;SDS011;8375;33.594;-117.718;2023-03-08T02:34:40;5.10;;;1.20;;
16524;SDS011;8375;33.594;-117.718;2023-03-08T02:37:09;4.30;;;1.30;;
16524;SDS011;8375;33.594;-117.718;2023-03-08T02:39:38;3.97;;;1.20;;
16524;SDS011;8375;33.594;-117.718;2023-03-08T02:42:08;3.87;;;1.27;;
16524;SDS011;8375;33.594;-117.718;2023-03-08T02:44:37;4.63;;;1.20;;
16524;SDS011;8375;33.594;-117.718;2023-03-08T02:47:05;3.93;;;1.80;;
16524;SDS011;8375;33.594;-117.718;2023-03-08T02:49:34;4.13;;;1.67;;
16524;SDS011;8375;33.594;-117.718;2023-03-08T02:52:03;3.50;;;1.50;;
16524;SDS011;8375;33.594;-117.718;2023-03-08T02:54:32;4.30;;;1.37;;
16524;SDS011;8375;33.594;-117.718;2023-03-08T02:57:02;2.97;;;1.30;;
16524;SDS011;8375;33.594;-117.718;2023-03-08T02:59:31;4.77;;;1.40;;
16524;SDS011;8375;33.594;-117.718;2023-03-08T03:02:00;2.07;;;1.00;;
16524;SDS011;8375;33.594;-117.718;2023-03-08T03:04:29;3.50;;;1.20;;
16524;SDS011;8375;33.594;-117.718;2023-03-08T03:06:58;4.33;;;1.20;;
16524;SDS011;8375;33.594;-117.718;2023-03-08T03:09:27;3.80;;;1.47;;
16524;SDS011;8375;33.594;-117.718;2023-03-08T03:11:56;4.70;;;1.20;;
16524;SDS011;8375;33.594;-117.718;2023-03-08T03:14:27;3.33;;;1.10;;
16524;SDS011;8375;33.594;-117.718;2023-03-08T03:16:56;2.30;;;1.17;;
16524;SDS011;8375;33.594;-117.718;2023-03-08T03:19:25;2.43;;;1.10;;
16524;SDS011;8375;33.594;-117.718;2023-03-08T03:21:54;3.37;;;1.27;;
16524;SDS011;8375;33.594;-117.718;2023-03-08T03:24:22;7.27;;;1.83;;
16524;SDS011;8375;33.594;-117.718;2023-03-08T03:26:51;4.20;;;1.53;;
16524;SDS011;8375;33.594;-117.718;2023-03-08T03:29:20;9.77;;;1.60;;
16524;SDS011;8375;33.594;-117.718;2023-03-08T03:31:50;4.87;;;1.30;;
16524;SDS011;8375;33.594;-117.718;2023-03-08T03:34:18;4.23;;;1.30;;
16524;SDS011;8375;33.594;-117.718;2023-03-08T03:36:47;2.80;;;1.70;;
16524;SDS011;8375;33.594;-117.718;2023-03-08T03:39:16;4.33;;;1.70;;
16524;SDS011;8375;33.594;-117.718;2023-03-08T03:41:45;5.43;;;1.60;;
16524;SDS011;8375;33.594;-117.718;2023-03-08T03:44:13;3.57;;;1.57;;
16524;SDS011;8375;33.594;-117.718;2023-03-08T03:46:42;3.30;;;1.40;;
16524;SDS011;8375;33.594;-117.718;2023-03-08T03:49:12;2.03;;;1.40;;
16524;SDS011;8375;33.594;-117.718;2023-03-08T03:51:41;5.87;;;1.93;;
16524;SDS011;8375;33.594;-117.718;2023-03-08T03:54:09;2.90;;;1.80;;
16524;SDS011;8375;33.594;-117.718;2023-03-08T03:56:38;3.13;;;1.70;;
16524;SDS011;8375;33.594;-117.718;2023-03-08T03:59:06;4.20;;;2.27;;
16524;SDS011;8375;33.594;-117.718;2023-03-08T04:01:35;4.10;;;1.67;;
16524;SDS011;8375;33.594;-117.718;2023-03-08T04:04:04;3.10;;;1.50;;
16524;SDS011;8375;33.594;-117.718;2023-03-08T04:06:34;4.47;;;1.40;;
16524;SDS011;8375;33.594;-117.718;2023-03-08T04:09:04;2.37;;;1.40;;
16524;SDS011;8375;33.594;-117.718;2023-03-08T04:11:34;5.47;;;1.80;;
16524;SDS011;8375;33.594;-117.718;2023-03-08T04:14:04;3.53;;;1.67;;
16524;SDS011;8375;33.594;-117.718;2023-03-08T04:16:34;7.10;;;2.00;;
16524;SDS011;8375;33.594;-117.718;2023-03-08T04:19:04;6.87;;;1.50;;
16524;SDS011;8375;33.594;-117.718;2023-03-08T04:21:36;4.20;;;1.70;;
16524;SDS011;8375;33.594;-117.718;2023-03-08T04:24:05;4.47;;;1.27;;
16524;SDS011;8375;33.594;-117.718;2023-03-08T04:26:34;4.37;;;1.73;;
16524;SDS011;8375;33.594;-117.718;2023-03-08T04:29:02;3.13;;;1.30;;
16524;SDS011;8375;33.594;-117.718;2023-03-08T04:31:35;6.23;;;1.70;;
16524;SDS011;8375;33.594;-117.718;2023-03-08T04:34:04;6.43;;;1.53;;
16524;SDS011;8375;33.594;-117.718;2023-03-08T04:36:32;2.43;;;1.13;;
16524;SDS011;8375;33.594;-117.718;2023-03-08T04:39:03;3.57;;;1.40;;
16524;SDS011;8375;33.594;-117.718;2023-03-08T04:41:31;5.30;;;2.23;;
16524;SDS011;8375;33.594;-117.718;2023-03-08T04:44:00;8.60;;;2.67;;
16524;SDS011;8375;33.594;-117.718;2023-03-08T04:46:29;6.90;;;3.13;;
16524;SDS011;8375;33.594;-117.718;2023-03-08T04:48:57;6.13;;;2.70;;
16524;SDS011;8375;33.594;-117.718;2023-03-08T04:51:26;9.27;;;3.50;;
16524;SDS011;8375;33.594;-117.718;2023-03-08T04:53:55;5.27;;;2.30;;
16524;SDS011;8375;33.594;-117.718;2023-03-08T04:56:25;2.77;;;1.90;;
16524;SDS011;8375;33.594;-117.718;2023-03-08T04:58:54;4.67;;;2.10;;
16524;SDS011;8375;33.594;-117.718;2023-03-08T05:01:22;4.50;;;1.63;;
16524;SDS011;8375;33.594;-117.718;2023-03-08T05:03:51;5.13;;;2.30;;
16524;SDS011;8375;33.594;-117.718;2023-03-08T05:06:21;4.93;;;2.03;;
16524;SDS011;8375;33.594;-117.718;2023-03-08T05:08:51;3.90;;;1.80;;
16524;SDS011;8375;33.594;-117.718;2023-03-08T05:11:21;7.40;;;1.80;;
16524;SDS011;8375;33.594;-117.718;2023-03-08T05:13:53;3.80;;;1.90;;
16524;SDS011;8375;33.594;-117.718;2023-03-08T05:16:24;5.90;;;1.80;;
16524;SDS011;8375;33.594;-117.718;2023-03-08T05:18:53;11.00;;;2.57;;
16524;SDS011;8375;33.594;-117.718;2023-03-08T05:21:21;3.70;;;1.60;;
16524;SDS011;8375;33.594;-117.718;2023-03-08T05:23:50;6.03;;;1.40;;
16524;SDS011;8375;33.594;-117.718;2023-03-08T05:26:19;2.50;;;1.40;;
16524;SDS011;8375;33.594;-117.718;2023-03-08T05:28:49;6.10;;;1.37;;
16524;SDS011;8375;33.594;-117.718;2023-03-08T05:31:20;3.47;;;1.40;;
16524;SDS011;8375;33.594;-117.718;2023-03-08T05:33:49;6.90;;;1.70;;
16524;SDS011;8375;33.594;-117.718;2023-03-08T05:36:18;3.40;;;1.50;;
16524;SDS011;8375;33.594;-117.718;2023-03-08T05:38:47;4.80;;;1.40;;
16524;SDS011;8375;33.594;-117.718;2023-03-08T05:41:20;3.57;;;1.60;;
16524;SDS011;8375;33.594;-117.718;2023-03-08T05:43:49;5.77;;;1.90;;
16524;SDS011;8375;33.594;-117.718;2023-03-08T05:46:19;3.73;;;1.60;;
16524;SDS011;8375;33.594;-117.718;2023-03-08T05:48:48;6.03;;;1.60;;
16524;SDS011;8375;33.594;-117.718;2023-03-08T05:51:17;2.57;;;1.50;;
16524;SDS011;8375;33.594;-117.718;2023-03-08T05:53:46;3.70;;;1.50;;
16524;SDS011;8375;33.594;-117.718;2023-03-08T05:56:15;3.40;;;1.57;;
16524;SDS011;8375;33.594;-117.718;2023-03-08T05:58:45;2.53;;;1.10;;
16524;SDS011;8375;33.594;-117.718;2023-03-08T06:01:14;4.53;;;1.33;;
16524;SDS011;8375;33.594;-117.718;2023-03-08T06:03:46;3.97;;;1.30;;
16524;SDS011;8375;33.594;-117.718;2023-03-08T06:06:16;3.70;;;1.30;;
16524;SDS011;8375;33.594;-117.718;2023-03-08T06:08:47;3.00;;;1.23;;
16524;SDS011;8375;33.594;-117.718;2023-03-08T06:11:16;4.07;;;1.40;;
16524;SDS011;8375;33.594;-117.718;2023-03-08T06:13:45;3.10;;;1.40;;
16524;SDS011;8375;33.594;-117.718;2023-03-08T06:16:14;2.90;;;1.23;;
16524;SDS011;8375;33.594;-117.718;2023-03-08T06:18:43;6.27;;;1.37;;
16524;SDS011;8375;33.594;-117.718;2023-03-08T06:21:13;7.73;;;1.90;;
16524;SDS011;8375;33.594;-117.718;2023-03-08T06:23:43;3.63;;;1.30;;
16524;SDS011;8375;33.594;-117.718;2023-03-08T06:26:13;2.03;;;1.10;;
16524;SDS011;8375;33.594;-117.718;2023-03-08T06:28:43;2.90;;;1.40;;
16524;SDS011;8375;33.594;-117.718;2023-03-08T06:31:12;4.23;;;1.47;;
16524;SDS011;8375;33.594;-117.718;2023-03-08T06:33:43;3.77;;;1.37;;
16524;SDS011;8375;33.594;-117.718;2023-03-08T06:36:15;3.53;;;1.20;;
16524;SDS011;8375;33.594;-117.718;2023-03-08T06:38:45;2.93;;;1.00;;
16524;SDS011;8375;33.594;-117.718;2023-03-08T06:41:16;2.73;;;1.30;;
16524;SDS011;8375;33.594;-117.718;2023-03-08T06:43:46;3.43;;;1.27;;
16524;SDS011;8375;33.594;-117.718;2023-03-08T06:46:16;4.87;;;1.10;;
16524;SDS011;8375;33.594;-117.718;2023-03-08T06:48:45;3.07;;;1.60;;
16524;SDS011;8375;33.594;-117.718;2023-03-08T06:51:17;5.67;;;2.13;;
16524;SDS011;8375;33.594;-117.718;2023-03-08T06:53:46;6.53;;;1.50;;
16524;SDS011;8375;33.594;-117.718;2023-03-08T06:56:15;3.43;;;1.70;;
16524;SDS011;8375;33.594;-117.718;2023-03-08T06:58:44;4.23;;;1.90;;
16524;SDS011;8375;33.594;-117.718;2023-03-08T07:01:13;5.07;;;2.00;;
16524;SDS011;8375;33.594;-117.718;2023-03-08T07:03:42;3.10;;;2.00;;
16524;SDS011;8375;33.594;-117.718;2023-03-08T07:06:13;5.87;;;1.73;;
16524;SDS011;8375;33.594;-117.718;2023-03-08T07:08:43;8.03;;;1.87;;
16524;SDS011;8375;33.594;-117.718;2023-03-08T07:11:12;5.07;;;2.40;;
16524;SDS011;8375;33.594;-117.718;2023-03-08T07:13:41;5.20;;;2.23;;
16524;SDS011;8375;33.594;-117.718;2023-03-08T07:16:10;5.27;;;1.90;;
16524;SDS011;8375;33.594;-117.718;2023-03-08T07:18:39;6.20;;;2.20;;
16524;SDS011;8375;33.594;-117.718;2023-03-08T07:21:08;4.03;;;1.90;;
16524;SDS011;8375;33.594;-117.718;2023-03-08T07:23:37;5.57;;;2.10;;
16524;SDS011;8375;33.594;-117.718;2023-03-08T07:26:08;4.37;;;1.80;;
16524;SDS011;8375;33.594;-117.718;2023-03-08T07:28:37;7.63;;;2.53;;
16524;SDS011;8375;33.594;-117.718;2023-03-08T07:31:08;4.30;;;1.87;;
16524;SDS011;8375;33.594;-117.718;2023-03-08T07:33:38;3.80;;;1.70;;
16524;SDS011;8375;33.594;-117.718;2023-03-08T07:36:07;4.07;;;1.80;;
16524;SDS011;8375;33.594;-117.718;2023-03-08T07:38:35;3.30;;;1.80;;
16524;SDS011;8375;33.594;-117.718;2023-03-08T07:41:04;6.03;;;2.00;;
16524;SDS011;8375;33.594;-117.718;2023-03-08T07:43:34;4.93;;;1.97;;
16524;SDS011;8375;33.594;-117.718;2023-03-08T07:46:03;7.47;;;2.27;;
16524;SDS011;8375;33.594;-117.718;2023-03-08T07:48:32;7.33;;;2.10;;
16524;SDS011;8375;33.594;-117.718;2023-03-08T07:51:02;6.17;;;2.57;;
16524;SDS011;8375;33.594;-117.718;2023-03-08T07:53:32;5.97;;;2.83;;
16524;SDS011;8375;33.594;-117.718;2023-03-08T07:56:01;6.67;;;2.90;;
16524;SDS011;8375;33.594;-117.718;2023-03-08T07:58:30;7.17;;;3.03;;
16524;SDS011;8375;33.594;-117.718;2023-03-08T08:01:01;7.40;;;3.00;;
16524;SDS011;8375;33.594;-117.718;2023-03-08T08:03:35;8.27;;;2.53;;
16524;SDS011;8375;33.594;-117.718;2023-03-08T08:06:04;5.60;;;2.60;;
16524;SDS011;8375;33.594;-117.718;2023-03-08T08:08:33;7.53;;;2.50;;
16524;SDS011;8375;33.594;-117.718;2023-03-08T08:11:08;7.13;;;2.80;;
16524;SDS011;8375;33.594;-117.718;2023-03-08T08:13:37;4.73;;;2.50;;
16524;SDS011;8375;33.594;-117.718;2023-03-08T08:16:08;5.23;;;2.67;;
16524;SDS011;8375;33.594;-117.718;2023-03-08T08:18:36;3.40;;;2.23;;
16524;SDS011;8375;33.594;-117.718;2023-03-08T08:21:06;7.57;;;2.87;;
16524;SDS011;8375;33.594;-117.718;2023-03-08T08:23:36;5.60;;;2.53;;
16524;SDS011;8375;33.594;-117.718;2023-03-08T08:26:06;4.97;;;2.20;;
16524;SDS011;8375;33.594;-117.718;2023-03-08T08:28:36;5.13;;;2.30;;
16524;SDS011;8375;33.594;-117.718;2023-03-08T08:31:09;4.73;;;2.30;;
16524;SDS011;8375;33.594;-117.718;2023-03-08T08:33:39;4.23;;;2.30;;
16524;SDS011;8375;33.594;-117.718;2023-03-08T08:36:09;5.20;;;2.40;;
16524;SDS011;8375;33.594;-117.718;2023-03-08T08:38:39;4.80;;;2.33;;
16524;SDS011;8375;33.594;-117.718;2023-03-08T08:41:08;3.23;;;2.43;;
16524;SDS011;8375;33.594;-117.718;2023-03-08T08:43:37;4.33;;;2.57;;
16524;SDS011;8375;33.594;-117.718;2023-03-08T08:46:05;4.93;;;2.67;;
16524;SDS011;8375;33.594;-117.718;2023-03-08T08:48:37;3.43;;;2.33;;
16524;SDS011;8375;33.594;-117.718;2023-03-08T08:51:06;6.07;;;2.30;;
16524;SDS011;8375;33.594;-117.718;2023-03-08T08:53:36;5.83;;;2.40;;
16524;SDS011;8375;33.594;-117.718;2023-03-08T08:56:12;6.57;;;2.27;;
16524;SDS011;8375;33.594;-117.718;2023-03-08T08:58:41;3.27;;;2.30;;
16524;SDS011;8375;33.594;-117.718;2023-03-08T09:01:16;5.13;;;2.27;;
16524;SDS011;8375;33.594;-117.718;2023-03-08T09:03:45;2.73;;;1.80;;
16524;SDS011;8375;33.594;-117.718;2023-03-08T09:06:14;4.90;;;2.20;;
16524;SDS011;8375;33.594;-117.718;2023-03-08T09:08:47;4.90;;;2.40;;
16524;SDS011;8375;33.594;-117.718;2023-03-08T09:11:16;9.10;;;2.20;;
16524;SDS011;8375;33.594;-117.718;2023-03-08T09:13:45;4.47;;;1.93;;
16524;SDS011;8375;33.594;-117.718;2023-03-08T09:16:19;3.53;;;2.37;;
16524;SDS011;8375;33.594;-117.718;2023-03-08T09:18:49;3.83;;;2.03;;
16524;SDS011;8375;33.594;-117.718;2023-03-08T09:21:18;4.40;;;1.80;;
16524;SDS011;8375;33.594;-117.718;2023-03-08T09:23:46;4.97;;;2.40;;
16524;SDS011;8375;33.594;-117.718;2023-03-08T09:26:15;7.17;;;1.97;;
16524;SDS011;8375;33.594;-117.718;2023-03-08T09:28:44;3.60;;;1.83;;
16524;SDS011;8375;33.594;-117.718;2023-03-08T09:31:14;3.90;;;2.03;;
16524;SDS011;8375;33.594;-117.718;2023-03-08T09:33:45;5.53;;;1.97;;
16524;SDS011;8375;33.594;-117.718;2023-03-08T09:36:16;3.93;;;1.90;;
16524;SDS011;8375;33.594;-117.718;2023-03-08T09:38:46;4.90;;;2.20;;
16524;SDS011;8375;33.594;-117.718;2023-03-08T09:41:25;3.50;;;1.73;;
16524;SDS011;8375;33.594;-117.718;2023-03-08T09:44:11;3.93;;;2.10;;
16524;SDS011;8375;33.594;-117.718;2023-03-08T09:46:45;6.10;;;2.23;;
16524;SDS011;8375;33.594;-117.718;2023-03-08T09:49:20;4.57;;;2.03;;
16524;SDS011;8375;33.594;-117.718;2023-03-08T09:51:57;6.03;;;1.97;;
16524;SDS011;8375;33.594;-117.718;2023-03-08T09:54:31;6.23;;;1.93;;
16524;SDS011;8375;33.594;-117.718;2023-03-08T09:57:04;4.93;;;1.93;;
16524;SDS011;8375;33.594;-117.718;2023-03-08T09:59:40;3.03;;;1.80;;
16524;SDS011;8375;33.594;-117.718;2023-03-08T10:02:17;3.60;;;1.63;;
16524;SDS011;8375;33.594;-117.718;2023-03-08T10:04:56;2.63;;;1.43;;
16524;SDS011;8375;33.594;-117.718;2023-03-08T10:07:33;8.60;;;1.83;;
16524;SDS011;8375;33.594;-117.718;2023-03-08T10:10:16;2.97;;;1.60;;
16524;SDS011;8375;33.594;-117.718;2023-03-08T10:13:04;5.67;;;2.00;;
16524;SDS011;8375;33.594;-117.718;2023-03-08T10:15:52;4.70;;;1.67;;
16524;SDS011;8375;33.594;-117.718;2023-03-08T10:18:30;4.13;;;1.70;;
16524;SDS011;8375;33.594;-117.718;2023-03-08T10:21:05;3.77;;;1.80;;
16524;SDS011;8375;33.594;-117.718;2023-03-08T10:23:37;3.17;;;1.70;;
16524;SDS011;8375;33.594;-117.718;2023-03-08T10:26:09;3.17;;;1.90;;
16524;SDS011;8375;33.594;-117.718;2023-03-08T10:28:38;2.90;;;2.00;;
16524;SDS011;8375;33.594;-117.718;2023-03-08T10:31:18;3.70;;;1.90;;
16524;SDS011;8375;33.594;-117.718;2023-03-08T10:33:50;3.67;;;1.50;;
16524;SDS011;8375;33.594;-117.718;2023-03-08T10:36:26;4.33;;;1.70;;
16524;SDS011;8375;33.594;-117.718;2023-03-08T10:38:55;2.83;;;1.80;;
16524;SDS011;8375;33.594;-117.718;2023-03-08T10:41:31;1.93;;;1.30;;
16524;SDS011;8375;33.594;-117.718;2023-03-08T10:44:12;4.93;;;1.40;;
16524;SDS011;8375;33.594;-117.718;2023-03-08T10:46:45;5.77;;;1.60;;
16524;SDS011;8375;33.594;-117.718;2023-03-08T10:49:16;2.50;;;1.43;;
16524;SDS011;8375;33.594;-117.718;2023-03-08T10:51:55;5.70;;;1.60;;
16524;SDS011;8375;33.594;-117.718;2023-03-08T10:54:25;2.77;;;1.77;;
16524;SDS011;8375;33.594;-117.718;2023-03-08T10:56:55;4.03;;;1.63;;
16524;SDS011;8375;33.594;-117.718;2023-03-08T10:59:27;2.70;;;1.50;;
16524;SDS011;8375;33.594;-117.718;2023-03-08T11:01:59;2.83;;;1.13;;
16524;SDS011;8375;33.594;-117.718;2023-03-08T11:04:29;6.53;;;1.23;;
16524;SDS011;8375;33.594;-117.718;2023-03-08T11:06:59;2.67;;;1.30;;
16524;SDS011;8375;33.594;-117.718;2023-03-08T11:09:37;8.80;;;2.07;;
16524;SDS011;8375;33.594;-117.718;2023-03-08T11:12:08;4.50;;;1.90;;
16524;SDS011;8375;33.594;-117.718;2023-03-08T11:14:50;5.30;;;1.63;;
16524;SDS011;8375;33.594;-117.718;2023-03-08T11:17:20;3.93;;;2.00;;
16524;SDS011;8375;33.594;-117.718;2023-03-08T11:19:58;4.23;;;1.80;;
16524;SDS011;8375;33.594;-117.718;2023-03-08T11:22:40;3.77;;;1.90;;
16524;SDS011;8375;33.594;-117.718;2023-03-08T11:25:30;3.73;;;2.23;;
16524;SDS011;8375;33.594;-117.718;2023-03-08T11:28:11;4.30;;;2.07;;
16524;SDS011;8375;33.594;-117.718;2023-03-08T11:30:57;4.50;;;2.07;;
16524;SDS011;8375;33.594;-117.718;2023-03-08T11:36:43;4.07;;;1.70;;
16524;SDS011;8375;33.594;-117.718;2023-03-08T11:39:22;2.40;;;1.53;;
16524;SDS011;8375;33.594;-117.718;2023-03-08T11:41:54;3.00;;;1.80;;
16524;SDS011;8375;33.594;-117.718;2023-03-08T11:44:32;3.30;;;1.50;;
16524;SDS011;8375;33.594;-117.718;2023-03-08T11:50:20;2.23;;;1.30;;
16524;SDS011;8375;33.594;-117.718;2023-03-08T11:52:52;4.90;;;1.17;;
16524;SDS011;8375;33.594;-117.718;2023-03-08T11:55:35;3.67;;;1.80;;
16524;SDS011;8375;33.594;-117.718;2023-03-08T11:58:14;3.53;;;1.57;;
16524;SDS011;8375;33.594;-117.718;2023-03-08T12:00:49;2.87;;;1.60;;
16524;SDS011;8375;33.594;-117.718;2023-03-08T12:03:23;2.83;;;1.40;;
16524;SDS011;8375;33.594;-117.718;2023-03-08T12:05:55;5.33;;;1.40;;
16524;SDS011;8375;33.594;-117.718;2023-03-08T12:08:27;4.20;;;1.40;;
16524;SDS011;8375;33.594;-117.718;2023-03-08T12:11:00;3.93;;;1.70;;
16524;SDS011;8375;33.594;-117.718;2023-03-08T12:13:31;1.90;;;1.43;;
16524;SDS011;8375;33.594;-117.718;2023-03-08T12:16:03;3.87;;;1.60;;
16524;SDS011;8375;33.594;-117.718;2023-03-08T12:18:39;2.83;;;1.60;;
16524;SDS011;8375;33.594;-117.718;2023-03-08T12:21:17;4.07;;;1.43;;
16524;SDS011;8375;33.594;-117.718;2023-03-08T12:23:55;1.40;;;1.20;;
16524;SDS011;8375;33.594;-117.718;2023-03-08T12:26:40;3.83;;;1.70;;
16524;SDS011;8375;33.594;-117.718;2023-03-08T12:29:14;3.63;;;1.37;;
16524;SDS011;8375;33.594;-117.718;2023-03-08T12:31:48;2.80;;;1.60;;
16524;SDS011;8375;33.594;-117.718;2023-03-08T12:34:24;2.07;;;1.30;;
16524;SDS011;8375;33.594;-117.718;2023-03-08T12:36:54;3.67;;;1.50;;
16524;SDS011;8375;33.594;-117.718;2023-03-08T12:39:24;5.37;;;1.60;;
16524;SDS011;8375;33.594;-117.718;2023-03-08T12:41:58;4.87;;;1.70;;
16524;SDS011;8375;33.594;-117.718;2023-03-08T12:44:28;3.33;;;1.57;;
16524;SDS011;8375;33.594;-117.718;2023-03-08T12:46:58;2.70;;;1.43;;
16524;SDS011;8375;33.594;-117.718;2023-03-08T12:49:29;3.40;;;1.47;;
16524;SDS011;8375;33.594;-117.718;2023-03-08T12:52:00;3.27;;;1.40;;
16524;SDS011;8375;33.594;-117.718;2023-03-08T12:54:31;2.83;;;1.27;;
16524;SDS011;8375;33.594;-117.718;2023-03-08T12:57:12;4.27;;;1.50;;
16524;SDS011;8375;33.594;-117.718;2023-03-08T12:59:43;3.07;;;1.30;;
16524;SDS011;8375;33.594;-117.718;2023-03-08T13:02:22;2.73;;;1.10;;
16524;SDS011;8375;33.594;-117.718;2023-03-08T13:05:02;4.27;;;1.10;;
16524;SDS011;8375;33.594;-117.718;2023-03-08T13:07:49;4.17;;;1.40;;
16524;SDS011;8375;33.594;-117.718;2023-03-08T13:10:29;1.83;;;1.20;;
16524;SDS011;8375;33.594;-117.718;2023-03-08T13:13:15;3.07;;;1.60;;
16524;SDS011;8375;33.594;-117.718;2023-03-08T13:15:49;2.93;;;1.37;;
16524;SDS011;8375;33.594;-117.718;2023-03-08T13:18:30;5.53;;;1.50;;
16524;SDS011;8375;33.594;-117.718;2023-03-08T13:21:05;4.67;;;1.20;;
16524;SDS011;8375;33.594;-117.718;2023-03-08T13:23:47;1.70;;;1.20;;
16524;SDS011;8375;33.594;-117.718;2023-03-08T13:26:28;3.17;;;1.40;;
16524;SDS011;8375;33.594;-117.718;2023-03-08T13:29:13;4.97;;;1.40;;
16524;SDS011;8375;33.594;-117.718;2023-03-08T13:31:43;3.03;;;1.40;;
16524;SDS011;8375;33.594;-117.718;2023-03-08T13:34:22;2.57;;;1.50;;
16524;SDS011;8375;33.594;-117.718;2023-03-08T13:36:54;3.67;;;1.40;;
16524;SDS011;8375;33.594;-117.718;2023-03-08T13:39:24;5.87;;;1.50;;
16524;SDS011;8375;33.594;-117.718;2023-03-08T13:42:04;4.90;;;1.27;;
16524;SDS011;8375;33.594;-117.718;2023-03-08T13:44:35;2.77;;;1.83;;
16524;SDS011;8375;33.594;-117.718;2023-03-08T13:47:17;2.47;;;1.43;;
16524;SDS011;8375;33.594;-117.718;2023-03-08T13:49:49;5.63;;;2.27;;
16524;SDS011;8375;33.594;-117.718;2023-03-08T13:52:21;2.40;;;1.43;;
16524;SDS011;8375;33.594;-117.718;2023-03-08T13:54:53;6.40;;;1.50;;
16524;SDS011;8375;33.594;-117.718;2023-03-08T13:57:23;4.43;;;1.30;;
16524;SDS011;8375;33.594;-117.718;2023-03-08T13:59:56;3.90;;;1.40;;
16524;SDS011;8375;33.594;-117.718;2023-03-08T14:02:26;3.13;;;1.30;;
16524;SDS011;8375;33.594;-117.718;2023-03-08T14:04:56;2.30;;;1.60;;
16524;SDS011;8375;33.594;-117.718;2023-03-08T14:07:26;6.43;;;1.20;;
16524;SDS011;8375;33.594;-117.718;2023-03-08T14:09:56;3.80;;;1.20;;
16524;SDS011;8375;33.594;-117.718;2023-03-08T14:12:26;1.67;;;1.50;;
16524;SDS011;8375;33.594;-117.718;2023-03-08T14:15:00;6.20;;;1.70;;
16524;SDS011;8375;33.594;-117.718;2023-03-08T14:17:32;3.60;;;1.47;;
16524;SDS011;8375;33.594;-117.718;2023-03-08T14:20:02;1.83;;;1.33;;
16524;SDS011;8375;33.594;-117.718;2023-03-08T14:22:45;4.07;;;1.27;;
16524;SDS011;8375;33.594;-117.718;2023-03-08T14:25:23;2.97;;;1.33;;
16524;SDS011;8375;33.594;-117.718;2023-03-08T14:27:53;3.50;;;1.50;;
16524;SDS011;8375;33.594;-117.718;2023-03-08T14:30:24;3.47;;;1.40;;
16524;SDS011;8375;33.594;-117.718;2023-03-08T14:32:55;3.27;;;1.30;;
16524;SDS011;8375;33.594;-117.718;2023-03-08T14:35:28;3.37;;;1.40;;
16524;SDS011;8375;33.594;-117.718;2023-03-08T14:37:59;3.57;;;1.40;;
16524;SDS011;8375;33.594;-117.718;2023-03-08T14:40:29;3.83;;;1.53;;
16524;SDS011;8375;33.594;-117.718;2023-03-08T14:43:00;1.93;;;1.30;;
16524;SDS011;8375;33.594;-117.718;2023-03-08T14:45:33;2.37;;;1.33;;
16524;SDS011;8375;33.594;-117.718;2023-03-08T14:48:15;3.43;;;1.23;;
16524;SDS011;8375;33.594;-117.718;2023-03-08T14:50:50;2.57;;;1.53;;
16524;SDS011;8375;33.594;-117.718;2023-03-08T14:53:24;3.33;;;1.53;;